Ophir, California
Current Conditions -  °F | °C
As of 8:35 PM on Friday 19 Dec 2014 (Local Time) from KAUN Reporting Station
Overcast Overcast  
Wind Chill: 46°   Ceiling: 2500
Heat Index: 48°   Visibility: 10mi
Dew Point: 46°   Wind: 6mph
Humidity: 93%   Direction: 110°ESE
Pressure: 30.13"   Gusts: NA
Location:  38.9102°N, 121.092°W
Report Text: KAUN 200435Z AUTO 11005KT 10SM SCT020 BKN025 OVC075 09/08 A3013 RMK AO1
Loading
Personal Weather Stations






























Interactive Weather Map New forecast layout! Learn more

10-Day Weather Forecast

Advertisements
Track Severe Weather on mobile